Girona Airport

Jump to: basic info | weather | frequencies | runways | comments

Related pages: nearby airports | nearby navaids | notams | map

Basic information (top)

Codes: GRO LEGE
Location: lon 41.901001, lat 2.760550, elev 468 ft / 143 m msl
Status: medium_airport
Scheduled airline service: yes
Links: Wikipedia Mobile

Weather (top)

Current conditions (rec'd 2014/04/17 03:30Z):

LEGE 170330Z 00000KT 9999 FEW010 07/06 Q1020

Airport forecast (rec'd 2014/04/16 00:27Z):

TAF LEGE 162300Z 1700/1724 VRB04KT CAVOK TX22/1713Z TN09/1706Z PROB40 
      TEMPO 1700/1709 2000 BCFG BKN006 
      BECMG 1710/1712 18010KT 
      BECMG 1717/1720 VRB03KT

Frequencies (top)

Verify before use: may be inaccurate or out of date.

APP: 120.9 MHz (APP)
GND: 121.7 MHz (GND)
TWR: 118.5 MHz (TWR)

Runways (top)

02/20: 7,874 x 148 ft (2,400 x 45 m) — paved — lighted

Latest comments (top)

No comments yet for Girona Airport

More... (top)

See also NOTAMs and nearby airports and navaids, or visit the Girona Airport page at the main OurAirports website..